CW2927 Weather Reports


Display with metric or nautical units.
time (UTC)temp
F
wind
direction
speed
MPH
gust
MPH
rain 1hr
in
rain 24hr
in
rain mn
in
humidity
%
barometer
mb
20171022004709 52 216 0.0 0.0 0.00 0.00 0.00 87 1024.4
20171022004209 53 216 0.0 0.0 0.00 0.00 0.00 86 1024.4
20171022002709 53 216 0.0 0.0 0.00 0.00 0.00 85 1024.4
20171022002210 53 216 0.0 0.0 0.00 0.00 0.00 85 1024.3
20171022000709 54 216 0.0 0.0 0.00 0.00 0.00 84 1024.1
20171022000210 54 216 0.0 0.0 0.00 0.00 0.00 83 1024.1
20171021234710 55 216 0.0 0.0 0.00 0.00 0.00 83 1024.2
20171021234210 56 215 0.0 0.0 0.00 0.00 0.00 83 1024.2
20171021232709 56 216 0.0 0.0 0.00 0.00 0.00 81 1024.2
20171021232210 56 216 0.0 0.0 0.00 0.00 0.00 81 1024.2
20171021230710 57 216 0.0 0.0 0.00 0.00 0.00 79 1024.2
20171021230210 57 216 0.0 0.0 0.00 0.00 0.00 78 1024.1
20171021224710 58 216 0.0 0.0 0.00 0.00 0.00 77 1023.8
20171021224210 58 216 0.0 0.0 0.00 0.00 0.00 76 1023.8
20171021222710 59 216 0.0 0.0 0.00 0.00 0.00 73 1023.9
20171021222210 60 216 0.0 0.0 0.00 0.00 0.00 72 1023.9
20171021220710 61 216 0.0 0.0 0.00 0.00 0.00 70 1023.8
20171021220209 62 216 0.0 0.0 0.00 0.00 0.00 69 1023.8
20171021214709 63 216 0.0 0.0 0.00 0.00 0.00 67 1023.5
20171021214209 64 216 0.0 0.0 0.00 0.00 0.00 66 1023.5
20171021212709 65 216 0.0 0.0 0.00 0.00 0.00 62 1023.4
20171021212209 65 216 0.0 0.0 0.00 0.00 0.00 61 1023.4
20171021210709 67 216 0.0 0.0 0.00 0.00 0.00 59 1023.2
20171021210210 67 216 0.0 2.0 0.00 0.00 0.00 58 1023.1
20171021204709 68 216 1.0 3.0 0.00 0.00 0.00 54 1023.1
20171021204210 69 221 1.0 3.0 0.00 0.00 0.00 53 1023.1
20171021202710 68 237 0.0 1.0 0.00 0.00 0.00 54 1023.0
20171021202209 68 237 0.0 5.0 0.00 0.00 0.00 53 1023.0
20171021200709 68 220 1.0 6.0 0.00 0.00 0.00 54 1023.1
20171021200210 68 225 1.0 6.0 0.00 0.00 0.00 53 1023.1
20171021194709 69 230 0.0 6.0 0.00 0.00 0.00 53 1023.1
20171021194210 68 233 2.0 7.0 0.00 0.00 0.00 54 1023.1
20171021192709 68 224 1.0 5.0 0.00 0.00 0.00 54 1023.1
20171021192210 68 300 1.0 6.0 0.00 0.00 0.00 54 1023.2
20171021190710 67 316 2.0 9.0 0.00 0.00 0.00 56 1023.2
20171021190209 67 238 2.0 6.0 0.00 0.00 0.00 57 1023.2
20171021184710 67 244 2.0 5.0 0.00 0.00 0.00 58 1023.2
20171021184209 66 245 2.0 7.0 0.00 0.00 0.00 56 1023.1
20171021182709 66 236 2.0 6.0 0.00 0.00 0.00 58 1023.0
20171021182210 66 247 0.0 3.0 0.00 0.00 0.00 58 1023.0
20171021180709 66 311 1.0 3.0 0.00 0.00 0.00 58 1023.1
20171021180209 66 269 1.0 7.0 0.00 0.00 0.00 58 1023.1
20171021174710 65 287 0.0 3.0 0.00 0.00 0.00 60 1023.2
20171021174209 65 286 1.0 5.0 0.00 0.00 0.00 59 1023.3
20171021172710 65 223 1.0 3.0 0.00 0.00 0.00 59 1023.2
20171021172209 65 207 2.0 5.0 0.00 0.00 0.00 58 1023.2
20171021170709 65 201 0.0 0.0 0.00 0.00 0.00 61 1023.3
20171021170210 64 201 2.0 5.0 0.00 0.00 0.00 60 1023.3
20171021164710 64 209 1.0 6.0 0.00 0.00 0.00 61 1023.4
20171021164209 64 294 1.0 6.0 0.00 0.00 0.00 62 1023.5
20171021162709 63 215 0.0 0.0 0.00 0.00 0.00 61 1023.4
20171021162209 63 215 1.0 7.0 0.00 0.00 0.00 62 1023.5
20171021160709 63 317 2.0 6.0 0.00 0.00 0.00 62 1023.5
20171021160209 63 314 2.0 7.0 0.00 0.00 0.00 62 1023.6
20171021154709 62 312 1.0 5.0 0.00 0.00 0.00 63 1023.4
20171021154209 62 314 1.0 6.0 0.00 0.00 0.00 63 1023.4
20171021152709 62 292 1.0 6.0 0.00 0.00 0.00 64 1023.4
20171021152209 62 232 1.0 8.0 0.00 0.00 0.00 65 1023.5
20171021150710 61 247 1.0 3.0 0.00 0.00 0.00 64 1023.8
20171021150209 61 302 1.0 6.0 0.00 0.00 0.00 67 1023.8
20171021144709 60 308 2.0 6.0 0.00 0.00 0.00 67 1023.8
20171021144209 60 273 1.0 9.0 0.00 0.00 0.00 68 1023.8
20171021142709 59 290 2.0 7.0 0.00 0.00 0.00 70 1023.6
20171021142211 58 283 1.0 9.0 0.00 0.00 0.00 71 1023.5
20171021140710 57 305 5.0 8.0 0.00 0.00 0.00 72 1023.6
20171021140209 56 315 4.0 7.0 0.00 0.00 0.00 73 1023.6
20171021134709 54 298 2.0 6.0 0.00 0.00 0.00 79 1023.5
20171021134209 53 265 1.0 7.0 0.00 0.00 0.00 81 1023.5
20171021132710 50 266 0.0 0.0 0.00 0.00 0.00 90 1023.5
20171021132209 50 266 1.0 3.0 0.00 0.00 0.00 91 1023.4
20171021130710 47 265 0.0 0.0 0.00 0.00 0.00 93 1023.4
20171021130209 46 265 0.0 0.0 0.00 0.00 0.00 93 1023.3
20171021124710 45 264 0.0 1.0 0.00 0.00 0.00 93 1023.2
20171021124209 44 265 0.0 0.0 0.00 0.00 0.00 93 1023.2
20171021122709 43 265 0.0 0.0 0.00 0.00 0.00 92 1023.0
20171021122210 43 265 0.0 0.0 0.00 0.00 0.00 93 1022.9
20171021120710 42 265 0.0 0.0 0.00 0.00 0.00 92 1022.7
20171021120209 42 265 0.0 0.0 0.00 0.00 0.00 92 1022.6
20171021114709 42 265 0.0 0.0 0.00 0.00 0.00 92 1022.5
20171021114209 42 265 0.0 0.0 0.00 0.00 0.00 92 1022.4
20171021112709 42 265 0.0 0.0 0.00 0.00 0.00 92 1022.3
20171021112210 42 265 0.0 0.0 0.00 0.00 0.00 92 1022.1
20171021110709 43 265 0.0 0.0 0.00 0.00 0.00 91 1021.9
20171021110209 43 265 0.0 0.0 0.00 0.00 0.00 92 1021.9
20171021104709 43 265 0.0 0.0 0.00 0.00 0.00 92 1021.7
20171021104209 43 265 0.0 0.0 0.00 0.00 0.00 92 1021.6
20171021102709 42 264 0.0 0.0 0.00 0.00 0.00 91 1021.5
20171021102210 42 265 0.0 0.0 0.00 0.00 0.00 91 1021.6
20171021100709 42 265 0.0 0.0 0.00 0.00 0.00 91 1021.4
20171021100209 42 265 0.0 0.0 0.00 0.00 0.00 91 1021.4
20171021094709 42 265 0.0 0.0 0.00 0.00 0.00 91 1021.3
20171021094209 42 265 0.0 0.0 0.00 0.00 0.00 91 1021.3
20171021092710 43 265 0.0 0.0 0.00 0.00 0.00 91 1021.4
20171021092209 43 265 0.0 0.0 0.00 0.00 0.00 91 1021.3
20171021090709 42 265 0.0 0.0 0.00 0.00 0.00 91 1021.2
20171021090209 42 265 0.0 0.0 0.00 0.00 0.00 91 1021.1
20171021084709 43 265 0.0 0.0 0.00 0.00 0.00 91 1021.0
20171021084210 43 265 0.0 0.0 0.00 0.00 0.00 91 1021.0
20171021082709 43 265 0.0 0.0 0.00 0.00 0.00 91 1020.8
20171021082209 43 265 0.0 0.0 0.00 0.00 0.00 91 1020.8
20171021080709 43 265 0.0 0.0 0.00 0.00 0.00 91 1020.7
20171021080209 43 265 0.0 0.0 0.00 0.00 0.00 91 1020.7
20171021074709 43 265 0.0 0.0 0.00 0.00 0.00 91 1020.7
20171021074209 43 265 0.0 0.0 0.00 0.00 0.00 91 1020.7
20171021072709 43 265 0.0 0.0 0.00 0.00 0.00 91 1020.7
20171021072209 43 265 0.0 0.0 0.00 0.00 0.00 90 1020.7
20171021070709 43 265 0.0 0.0 0.00 0.00 0.00 90 1020.7
20171021070209 43 265 0.0 0.0 0.00 0.00 0.00 90 1020.6
20171021064709 43 265 0.0 0.0 0.00 0.00 0.00 89 1020.7
20171021064209 43 265 0.0 0.0 0.00 0.00 0.00 89 1020.6
20171021062709 43 265 0.0 0.0 0.00 0.00 0.00 89 1020.7
20171021062210 43 265 0.0 0.0 0.00 0.00 0.00 89 1020.6
20171021060709 44 265 0.0 0.0 0.00 0.00 0.00 88 1020.4
20171021060209 44 265 0.0 0.0 0.00 0.00 0.00 88 1020.4
20171021054709 44 265 0.0 0.0 0.00 0.00 0.00 88 1020.2
20171021054208 44 265 0.0 0.0 0.00 0.00 0.00 88 1020.1
20171021052709 44 265 0.0 0.0 0.00 0.00 0.00 87 1020.0
20171021052209 44 265 0.0 1.0 0.00 0.00 0.00 87 1019.9
20171021050709 44 265 0.0 0.0 0.00 0.00 0.00 87 1019.8
20171021050209 44 265 0.0 1.0 0.00 0.00 0.00 86 1019.8
20171021044709 44 265 0.0 0.0 0.00 0.00 0.00 87 1019.7
20171021044209 44 265 0.0 2.0 0.00 0.00 0.00 87 1019.6
20171021042709 44 267 0.0 0.0 0.00 0.00 0.00 86 1019.5
20171021042210 44 267 0.0 1.0 0.00 0.00 0.00 86 1019.5
20171021040708 44 267 0.0 1.0 0.00 0.00 0.00 86 1019.6
20171021040209 44 267 0.0 0.0 0.00 0.00 0.00 86 1019.6
20171021034709 44 267 0.0 0.0 0.00 0.00 0.00 85 1019.5
20171021034209 45 267 0.0 0.0 0.00 0.00 0.00 85 1019.5
20171021032709 45 267 0.0 0.0 0.00 0.00 0.00 85 1019.6
20171021032208 45 267 0.0 1.0 0.00 0.00 0.00 85 1019.5
20171021030709 45 267 0.0 2.0 0.00 0.00 0.00 84 1019.6
20171021030209 45 267 0.0 2.0 0.00 0.00 0.00 84 1019.5
20171021024709 46 289 0.0 0.0 0.00 0.00 0.00 84 1019.5
20171021024209 46 289 0.0 0.0 0.00 0.00 0.00 84 1019.5
20171021022709 46 289 0.0 0.0 0.00 0.00 0.00 83 1019.4
20171021022209 46 289 0.0 0.0 0.00 0.00 0.00 82 1019.3
20171021020709 47 289 0.0 0.0 0.00 0.00 0.00 81 1019.3
20171021020209 47 289 0.0 0.0 0.00 0.00 0.00 80 1019.3
20171021014709 48 289 0.0 0.0 0.00 0.00 0.00 79 1019.2
20171021014209 48 289 0.0 0.0 0.00 0.00 0.00 78 1019.2
20171021012709 49 289 0.0 0.0 0.00 0.00 0.00 78 1019.2
20171021012208 49 288 0.0 0.0 0.00 0.00 0.00 77 1019.2
20171021010709 50 289 0.0 0.0 0.00 0.00 0.00 76 1019.0
20171021010209 50 289 0.0 0.0 0.00 0.00 0.00 75 1019.0